createdAt,value
2023-04-29T00:02:06.369Z,32.40
2023-04-29T00:04:52.022Z,31.95
2023-04-29T00:07:37.940Z,32.28
2023-04-29T00:10:23.184Z,28.77
2023-04-29T00:13:08.747Z,27.00
2023-04-29T00:15:54.322Z,23.67
2023-04-29T00:18:39.653Z,26.75
2023-04-29T00:21:27.463Z,26.55
2023-04-29T00:24:12.453Z,26.90
2023-04-29T00:26:58.381Z,26.40
2023-04-29T00:29:44.009Z,26.25
2023-04-29T00:32:29.537Z,24.45
2023-04-29T00:35:14.842Z,24.67
2023-04-29T00:38:00.148Z,27.35
2023-04-29T00:40:45.982Z,25.52
2023-04-29T00:43:32.049Z,22.83
2023-04-29T00:46:18.099Z,19.50
2023-04-29T00:49:03.821Z,24.25
2023-04-29T00:51:50.169Z,22.52
2023-04-29T00:54:35.609Z,21.77
2023-04-29T00:57:22.214Z,19.02
2023-04-29T01:00:10.149Z,16.83
2023-04-29T01:02:57.063Z,17.58
2023-04-29T01:05:44.137Z,16.73
2023-04-29T01:08:39.937Z,16.50
2023-04-29T01:11:33.552Z,15.57
2023-04-29T01:14:19.043Z,19.00
2023-04-29T01:17:15.624Z,23.63
2023-04-29T01:20:01.785Z,21.98
2023-04-29T01:22:47.519Z,24.52
2023-04-29T01:25:33.000Z,22.50
2023-04-29T01:28:50.840Z,26.92
2023-04-29T01:31:47.395Z,22.80
2023-04-29T01:34:55.179Z,22.27
2023-04-29T01:37:41.192Z,22.60
2023-04-29T01:40:34.089Z,23.15
2023-04-29T01:43:30.793Z,21.92
2023-04-29T01:46:19.664Z,25.08
2023-04-29T01:49:05.128Z,25.88
2023-04-29T01:51:50.746Z,25.13
2023-04-29T01:54:36.409Z,24.92
2023-04-29T01:57:22.141Z,22.83
2023-04-29T02:00:33.968Z,26.48
2023-04-29T02:03:19.958Z,24.60
2023-04-29T02:06:09.514Z,24.35
2023-04-29T02:08:55.578Z,27.35
2023-04-29T02:11:40.860Z,28.30
2023-04-29T02:14:26.472Z,25.60
2023-04-29T02:17:11.807Z,24.00
2023-04-29T02:19:59.584Z,29.40
2023-04-29T02:22:44.916Z,26.60
2023-04-29T02:25:30.664Z,22.50
2023-04-29T02:28:18.120Z,21.45
2023-04-29T02:31:03.338Z,27.23
2023-04-29T02:33:49.184Z,22.50
2023-04-29T02:36:34.835Z,24.08
2023-04-29T02:39:20.599Z,24.25
2023-04-29T02:42:06.374Z,23.90
2023-04-29T02:44:51.681Z,23.00
2023-04-29T02:47:37.159Z,22.83
2023-04-29T02:50:22.486Z,24.33
2023-04-29T02:53:08.460Z,21.60
2023-04-29T02:55:54.232Z,23.65
2023-04-29T02:58:42.035Z,25.02
2023-04-29T03:01:27.415Z,24.00
2023-04-29T03:04:13.051Z,26.58
2023-04-29T03:06:58.863Z,26.20
2023-04-29T03:09:45.863Z,24.00
2023-04-29T03:12:31.367Z,28.00
2023-04-29T03:15:17.050Z,26.95
2023-04-29T03:18:04.865Z,26.02
2023-04-29T03:20:52.177Z,26.30
2023-04-29T03:23:39.355Z,29.92
2023-04-29T03:26:25.657Z,28.67
2023-04-29T03:29:11.419Z,27.90
2023-04-29T03:31:57.466Z,28.05
2023-04-29T03:34:43.166Z,24.42
2023-04-29T03:38:07.277Z,33.75
2023-04-29T03:40:54.201Z,28.60
2023-04-29T03:43:39.574Z,25.13
2023-04-29T03:46:24.912Z,27.00
2023-04-29T03:49:10.441Z,26.60
2023-04-29T03:51:55.750Z,28.88
2023-04-29T03:54:42.621Z,26.15
2023-04-29T03:57:28.104Z,26.63
2023-04-29T04:00:14.444Z,24.75
2023-04-29T04:03:05.488Z,36.92
2023-04-29T04:05:52.706Z,29.80
2023-04-29T04:08:38.006Z,21.23
2023-04-29T04:11:30.942Z,26.83
2023-04-29T04:14:19.347Z,28.70
2023-04-29T04:17:04.800Z,24.20
2023-04-29T04:19:50.892Z,31.73
2023-04-29T04:22:36.558Z,26.83
2023-04-29T04:25:38.943Z,28.13
2023-04-29T04:28:47.291Z,24.80
2023-04-29T04:31:46.318Z,23.58
2023-04-29T04:34:33.683Z,24.85
2023-04-29T04:37:20.623Z,24.83
2023-04-29T04:40:11.942Z,27.38
2023-04-29T04:43:13.978Z,22.33
2023-04-29T04:46:00.393Z,23.27
2023-04-29T04:48:46.703Z,26.52
2023-04-29T04:51:33.208Z,24.63
2023-04-29T04:54:18.608Z,25.98
2023-04-29T04:57:05.954Z,26.65
2023-04-29T04:59:51.341Z,28.00
2023-04-29T05:02:37.990Z,23.48
2023-04-29T05:05:23.503Z,24.15
2023-04-29T05:08:09.405Z,21.98
2023-04-29T05:11:00.287Z,19.98
2023-04-29T05:13:45.576Z,22.80
2023-04-29T05:16:31.306Z,26.98
2023-04-29T05:19:17.297Z,24.20
2023-04-29T05:22:04.168Z,26.33
2023-04-29T05:24:49.516Z,25.17
2023-04-29T05:27:35.573Z,27.48
2023-04-29T05:30:23.014Z,26.90
2023-04-29T05:33:08.446Z,25.92
2023-04-29T05:35:53.885Z,22.58
2023-04-29T05:38:39.221Z,25.67
2023-04-29T05:41:27.356Z,24.50
2023-04-29T05:44:29.388Z,24.35
2023-04-29T05:47:14.680Z,25.90
2023-04-29T05:50:00.720Z,25.10
2023-04-29T05:52:47.381Z,23.30
2023-04-29T05:55:32.637Z,21.13
2023-04-29T05:58:18.122Z,23.63
2023-04-29T06:01:03.621Z,20.33
2023-04-29T06:03:50.348Z,22.25
2023-04-29T06:06:56.956Z,20.30
2023-04-29T06:10:07.505Z,19.55
2023-04-29T06:12:52.880Z,17.92
2023-04-29T06:15:38.528Z,21.02
2023-04-29T06:18:24.028Z,19.73
2023-04-29T06:21:09.400Z,18.02
2023-04-29T06:23:55.340Z,19.60
2023-04-29T06:26:40.922Z,18.73
2023-04-29T06:29:26.709Z,17.40
2023-04-29T06:32:13.994Z,20.20
2023-04-29T06:35:00.059Z,19.23
2023-04-29T06:38:23.696Z,16.65
2023-04-29T06:41:41.055Z,17.27
2023-04-29T06:45:02.120Z,15.05
2023-04-29T06:47:59.876Z,13.15
2023-04-29T06:50:57.894Z,17.65
2023-04-29T06:53:43.257Z,15.00
2023-04-29T06:56:29.825Z,13.13
2023-04-29T06:59:15.776Z,14.40
2023-04-29T07:02:01.084Z,12.38
2023-04-29T07:04:46.507Z,12.98
2023-04-29T07:07:34.496Z,13.82
2023-04-29T07:10:19.715Z,15.80
2023-04-29T07:13:06.103Z,13.88
2023-04-29T07:15:51.636Z,18.55
2023-04-29T07:18:37.033Z,10.68
2023-04-29T07:21:22.703Z,15.23
2023-04-29T07:24:08.103Z,12.00
2023-04-29T07:26:53.629Z,11.35
2023-04-29T07:29:40.096Z,10.55
2023-04-29T07:32:25.224Z,8.77
2023-04-29T07:35:10.714Z,11.07
2023-04-29T07:37:56.199Z,10.40
2023-04-29T07:40:42.178Z,12.50
2023-04-29T07:43:27.461Z,11.48
2023-04-29T07:46:12.819Z,13.93
2023-04-29T07:48:58.341Z,10.07
2023-04-29T07:51:44.052Z,9.52
2023-04-29T07:54:29.456Z,11.82
2023-04-29T07:57:15.339Z,12.85
2023-04-29T08:00:00.863Z,11.30
2023-04-29T08:02:46.173Z,11.40
2023-04-29T08:05:34.280Z,10.77
2023-04-29T08:08:20.039Z,10.60
2023-04-29T08:11:06.577Z,11.80
2023-04-29T08:13:52.293Z,10.35
2023-04-29T08:16:37.744Z,10.18
2023-04-29T08:19:23.458Z,9.90
2023-04-29T08:22:11.103Z,11.07
2023-04-29T08:24:56.549Z,9.77
2023-04-29T08:27:43.592Z,11.52
2023-04-29T08:30:28.941Z,10.85
2023-04-29T08:33:14.651Z,12.38
2023-04-29T08:36:00.316Z,10.52
2023-04-29T08:38:46.264Z,9.45
2023-04-29T08:41:33.287Z,10.73
2023-04-29T08:44:18.619Z,11.27
2023-04-29T08:47:04.795Z,10.93
2023-04-29T08:49:50.011Z,10.90
2023-04-29T08:52:36.013Z,13.20
2023-04-29T08:55:20.986Z,11.90
2023-04-29T08:58:07.386Z,10.52
2023-04-29T09:00:52.768Z,11.10
2023-04-29T09:03:52.837Z,11.20
2023-04-29T09:06:38.571Z,11.13
2023-04-29T09:09:25.047Z,11.35
2023-04-29T09:12:10.245Z,11.77
2023-04-29T09:14:59.003Z,11.85
2023-04-29T09:17:46.728Z,10.70
2023-04-29T09:20:32.073Z,11.32
2023-04-29T09:23:17.602Z,11.68
2023-04-29T09:26:02.975Z,9.43
2023-04-29T09:29:05.526Z,11.70
2023-04-29T09:34:40.969Z,10.32
2023-04-29T09:37:27.981Z,13.13
2023-04-29T09:40:36.455Z,12.10
2023-04-29T09:43:26.269Z,11.48
2023-04-29T09:46:16.018Z,12.57
2023-04-29T09:49:02.029Z,11.98
2023-04-29T09:52:01.823Z,11.65
2023-04-29T09:54:47.387Z,10.18
2023-04-29T09:57:44.252Z,11.90
2023-04-29T10:00:33.345Z,11.82
2023-04-29T10:03:22.027Z,14.05
2023-04-29T10:06:07.729Z,12.25
2023-04-29T10:08:53.213Z,8.98
2023-04-29T10:11:40.709Z,9.10
2023-04-29T10:14:27.656Z,10.32
2023-04-29T10:17:29.041Z,10.52
2023-04-29T10:20:16.466Z,9.77
2023-04-29T10:23:03.447Z,10.02
2023-04-29T10:25:51.412Z,11.65
2023-04-29T10:28:39.608Z,11.93
2023-04-29T10:31:28.449Z,8.50
2023-04-29T10:34:16.639Z,9.13
2023-04-29T10:37:02.797Z,11.45
2023-04-29T10:39:59.278Z,9.55
2023-04-29T10:42:48.369Z,9.38
2023-04-29T10:45:37.744Z,10.15
2023-04-29T10:48:25.418Z,7.40
2023-04-29T10:51:10.721Z,7.60
2023-04-29T10:54:00.386Z,9.25
2023-04-29T10:56:54.061Z,9.90
2023-04-29T10:59:39.579Z,9.60
2023-04-29T11:02:26.385Z,10.52
2023-04-29T11:05:15.778Z,9.45
2023-04-29T11:08:43.316Z,7.07
2023-04-29T11:11:40.561Z,9.43
2023-04-29T11:14:41.721Z,7.43
2023-04-29T11:17:28.478Z,10.02
2023-04-29T11:20:14.616Z,7.85
2023-04-29T11:23:01.766Z,9.15
2023-04-29T11:25:47.113Z,9.23
2023-04-29T11:28:33.803Z,10.88
2023-04-29T11:31:19.276Z,11.00
2023-04-29T11:34:06.853Z,9.13
2023-04-29T11:36:52.813Z,8.65
2023-04-29T11:39:38.001Z,10.63
2023-04-29T11:42:23.998Z,7.80
2023-04-29T11:45:09.567Z,9.40
2023-04-29T11:47:56.092Z,9.90
2023-04-29T11:50:42.381Z,9.93
2023-04-29T11:53:28.060Z,11.02
2023-04-29T11:56:13.299Z,10.70
2023-04-29T11:58:59.024Z,9.13
2023-04-29T12:01:44.346Z,7.35
2023-04-29T12:04:29.772Z,9.18
2023-04-29T12:07:18.861Z,10.63
2023-04-29T12:10:07.695Z,7.50
2023-04-29T12:12:53.511Z,6.50
2023-04-29T12:15:40.367Z,7.28
2023-04-29T12:18:27.628Z,7.70
2023-04-29T12:21:13.514Z,7.70
2023-04-29T12:24:00.546Z,7.47
2023-04-29T12:26:46.819Z,8.32
2023-04-29T12:29:33.170Z,9.32
2023-04-29T12:32:21.944Z,9.95
2023-04-29T12:35:16.456Z,7.57
2023-04-29T12:38:02.675Z,7.30
2023-04-29T12:40:48.234Z,7.53
2023-04-29T12:43:33.871Z,9.40
2023-04-29T12:46:21.332Z,7.30
2023-04-29T12:49:08.030Z,5.97
2023-04-29T12:51:53.664Z,6.82
2023-04-29T12:54:43.974Z,5.95
2023-04-29T12:57:29.429Z,5.05
2023-04-29T13:00:15.461Z,6.05
2023-04-29T13:03:01.615Z,5.75
2023-04-29T13:05:51.077Z,6.80
2023-04-29T13:08:36.334Z,4.00
2023-04-29T13:11:22.070Z,4.40
2023-04-29T13:14:07.264Z,6.72
2023-04-29T13:16:52.576Z,6.75
2023-04-29T13:19:50.244Z,5.97
2023-04-29T13:22:37.385Z,7.18
2023-04-29T13:25:22.557Z,7.43
2023-04-29T13:28:08.183Z,5.90
2023-04-29T13:30:54.331Z,5.20
2023-04-29T13:33:40.219Z,7.22
2023-04-29T13:36:27.493Z,6.57
2023-04-29T13:39:14.464Z,5.25
2023-04-29T13:42:00.491Z,4.38
2023-04-29T13:44:52.557Z,4.97
2023-04-29T13:51:13.888Z,6.22
2023-04-29T13:57:05.892Z,6.93
2023-04-29T13:59:50.696Z,4.30
2023-04-29T14:02:39.097Z,4.95
2023-04-29T14:05:24.904Z,3.00
2023-04-29T14:08:10.181Z,4.47
2023-04-29T14:10:55.626Z,3.90
2023-04-29T14:13:41.400Z,3.47
2023-04-29T14:16:27.841Z,3.15
2023-04-29T14:19:13.927Z,2.65
2023-04-29T14:21:59.251Z,2.80
2023-04-29T14:24:44.621Z,6.55
2023-04-29T14:27:30.400Z,4.68
2023-04-29T14:30:15.714Z,4.53
2023-04-29T14:33:01.362Z,3.05
2023-04-29T14:35:46.956Z,4.43
2023-04-29T14:38:32.447Z,4.65
2023-04-29T14:41:17.840Z,3.13
2023-04-29T14:44:03.476Z,5.32
2023-04-29T14:46:49.159Z,4.72
2023-04-29T14:49:34.481Z,3.38
2023-04-29T14:52:19.773Z,4.57
2023-04-29T14:55:05.683Z,4.18
2023-04-29T14:57:50.682Z,3.45
2023-04-29T15:00:36.430Z,4.50
2023-04-29T15:03:23.139Z,3.95
2023-04-29T15:06:08.653Z,2.90
2023-04-29T15:08:54.118Z,2.60
2023-04-29T15:11:39.551Z,2.58
2023-04-29T15:14:24.866Z,2.92
2023-04-29T15:17:10.351Z,2.63
2023-04-29T15:19:55.817Z,2.58
2023-04-29T15:22:41.332Z,4.93
2023-04-29T15:25:27.628Z,4.38
2023-04-29T15:28:13.027Z,3.05
2023-04-29T15:30:59.848Z,3.33
2023-04-29T15:33:45.362Z,3.78
2023-04-29T15:36:33.322Z,3.13
2023-04-29T15:39:18.351Z,2.65
2023-04-29T15:42:03.984Z,2.30
2023-04-29T15:44:49.331Z,2.85
2023-04-29T15:47:35.157Z,2.63
2023-04-29T15:50:20.968Z,3.78
2023-04-29T15:53:06.086Z,3.03
2023-04-29T15:55:51.727Z,3.60
2023-04-29T15:58:36.922Z,3.63
2023-04-29T16:01:22.532Z,4.05
2023-04-29T16:04:08.262Z,3.83
2023-04-29T16:06:54.167Z,2.90
2023-04-29T16:09:39.601Z,4.43
2023-04-29T16:12:24.957Z,11.55
2023-04-29T16:15:10.708Z,4.32
2023-04-29T16:17:56.417Z,2.85
2023-04-29T16:20:41.957Z,2.47
2023-04-29T16:23:27.913Z,2.20
2023-04-29T16:26:13.771Z,5.28
2023-04-29T16:28:59.815Z,5.93
2023-04-29T16:31:45.525Z,8.15
2023-04-29T16:34:30.913Z,5.75
2023-04-29T16:37:16.231Z,9.65
2023-04-29T16:40:02.108Z,5.47
2023-04-29T16:42:47.353Z,8.90
2023-04-29T16:45:33.109Z,9.45
2023-04-29T16:48:18.871Z,8.32
2023-04-29T16:51:04.482Z,7.35
2023-04-29T16:53:49.901Z,8.75
2023-04-29T16:56:35.435Z,6.40
2023-04-29T17:10:29.160Z,7.38
2023-04-29T17:13:14.615Z,4.70
2023-04-29T17:16:00.138Z,6.07
2023-04-29T17:18:45.537Z,7.20
2023-04-29T17:21:32.403Z,5.15
2023-04-29T17:24:18.177Z,6.70
2023-04-29T17:27:03.474Z,7.70
2023-04-29T17:29:49.348Z,4.93
2023-04-29T17:32:39.044Z,6.47
2023-04-29T17:35:24.633Z,4.65
2023-04-29T17:38:11.952Z,5.68
2023-04-29T17:40:57.379Z,5.97
2023-04-29T17:43:42.866Z,6.30
2023-04-29T17:46:28.337Z,5.30
2023-04-29T17:49:13.748Z,8.93
2023-04-29T17:52:00.247Z,6.40
2023-04-29T17:54:45.759Z,5.20
2023-04-29T17:57:31.886Z,5.97
2023-04-29T18:00:18.333Z,6.18
2023-04-29T18:03:04.791Z,5.82
2023-04-29T18:05:50.390Z,5.57
2023-04-29T18:08:36.497Z,8.65
2023-04-29T18:11:21.766Z,6.10
2023-04-29T18:14:07.019Z,6.47
2023-04-29T18:16:52.361Z,9.05
2023-04-29T18:19:37.664Z,8.10
2023-04-29T18:22:23.275Z,8.27
2023-04-29T18:25:09.603Z,9.32
2023-04-29T18:28:07.527Z,9.82
2023-04-29T18:31:01.108Z,6.15
2023-04-29T18:33:46.485Z,6.82
2023-04-29T18:36:32.021Z,9.38
2023-04-29T18:39:18.006Z,9.02
2023-04-29T18:42:06.087Z,6.90
2023-04-29T18:44:51.677Z,8.52
2023-04-29T18:47:37.501Z,9.75
2023-04-29T18:50:23.795Z,8.90
2023-04-29T18:53:09.174Z,10.32
2023-04-29T18:55:54.624Z,8.52
2023-04-29T18:58:39.733Z,12.15
2023-04-29T19:01:25.502Z,9.23
2023-04-29T19:04:11.237Z,11.43
2023-04-29T19:06:57.671Z,9.13
2023-04-29T19:09:42.884Z,10.63
2023-04-29T19:12:28.512Z,10.60
2023-04-29T19:15:14.142Z,10.07
2023-04-29T19:17:59.656Z,8.98
2023-04-29T19:20:44.984Z,8.50
2023-04-29T19:23:30.553Z,11.32
2023-04-29T19:26:15.978Z,9.95
2023-04-29T19:29:01.569Z,8.27
2023-04-29T19:31:47.350Z,9.88
2023-04-29T19:34:32.544Z,8.65
2023-04-29T19:37:18.093Z,8.60
2023-04-29T19:40:04.217Z,11.65
2023-04-29T19:42:49.429Z,8.82
2023-04-29T19:45:35.647Z,10.80
2023-04-29T19:48:20.971Z,9.93
2023-04-29T19:51:07.214Z,9.82
2023-04-29T19:53:59.953Z,14.05
2023-04-29T19:56:45.053Z,12.18
2023-04-29T19:59:30.363Z,13.57
2023-04-29T20:02:15.903Z,11.80
2023-04-29T20:05:01.181Z,11.70
2023-04-29T20:07:46.729Z,9.60
2023-04-29T20:10:32.130Z,11.10
2023-04-29T20:13:17.574Z,12.38
2023-04-29T20:16:02.995Z,10.18
2023-04-29T20:18:48.551Z,12.15
2023-04-29T20:21:33.697Z,9.57
2023-04-29T20:24:18.998Z,13.52
2023-04-29T20:27:04.638Z,10.27
2023-04-29T20:29:50.072Z,10.55
2023-04-29T20:32:35.906Z,11.15
2023-04-29T20:35:21.280Z,11.60
2023-04-29T20:38:07.234Z,13.02
2023-04-29T20:40:53.656Z,12.35
2023-04-29T20:43:39.104Z,15.77
2023-04-29T20:46:26.047Z,11.07
2023-04-29T20:49:13.178Z,11.65
2023-04-29T20:51:59.553Z,10.93
2023-04-29T20:54:45.115Z,12.27
2023-04-29T20:57:32.454Z,12.75
2023-04-29T21:00:17.817Z,15.20
2023-04-29T21:03:03.161Z,10.50
2023-04-29T21:05:56.283Z,12.77
2023-04-29T21:08:41.606Z,12.68
2023-04-29T21:11:26.796Z,10.80
2023-04-29T21:14:13.242Z,9.27
2023-04-29T21:16:58.964Z,13.68
2023-04-29T21:19:44.109Z,14.77
2023-04-29T21:22:29.629Z,11.60
2023-04-29T21:25:15.124Z,12.18
2023-04-29T21:28:00.682Z,12.40
2023-04-29T21:30:46.120Z,12.10
2023-04-29T21:33:31.691Z,11.02
2023-04-29T21:36:17.421Z,14.90
2023-04-29T21:39:02.610Z,13.25
2023-04-29T21:41:48.039Z,13.02
2023-04-29T21:44:34.836Z,14.10
2023-04-29T21:47:20.530Z,13.35
2023-04-29T21:50:07.511Z,12.38
2023-04-29T21:52:52.794Z,14.93
2023-04-29T21:55:38.774Z,14.23
2023-04-29T21:58:24.321Z,14.60
2023-04-29T22:01:26.757Z,14.48
2023-04-29T22:04:12.185Z,14.50
2023-04-29T22:06:58.731Z,12.38
2023-04-29T22:09:49.485Z,15.10
2023-04-29T22:12:34.582Z,12.25
2023-04-29T22:15:27.993Z,16.45
2023-04-29T22:18:14.298Z,11.25
2023-04-29T22:20:59.738Z,14.18
2023-04-29T22:23:45.500Z,16.92
2023-04-29T22:26:31.099Z,15.57
2023-04-29T22:29:16.709Z,14.60
2023-04-29T22:32:02.281Z,13.93
2023-04-29T22:34:47.432Z,15.63
2023-04-29T22:37:32.934Z,18.83
2023-04-29T22:40:18.467Z,15.25
2023-04-29T22:43:04.051Z,16.85
2023-04-29T22:45:56.030Z,16.35
2023-04-29T22:48:41.744Z,15.90
2023-04-29T22:51:26.998Z,13.63
2023-04-29T22:54:12.597Z,15.20
2023-04-29T22:56:58.167Z,14.30
2023-04-29T22:59:43.439Z,16.27
2023-04-29T23:02:29.470Z,14.20
2023-04-29T23:05:15.551Z,14.77
2023-04-29T23:08:01.297Z,15.88
2023-04-29T23:10:49.940Z,15.50
2023-04-29T23:13:34.946Z,15.85
2023-04-29T23:16:20.847Z,17.15
2023-04-29T23:19:06.385Z,12.45
2023-04-29T23:21:51.514Z,13.23
2023-04-29T23:24:37.739Z,14.60
2023-04-29T23:27:22.769Z,12.05
2023-04-29T23:30:09.063Z,9.55
2023-04-29T23:32:54.772Z,8.88
2023-04-29T23:35:40.246Z,13.68
2023-04-29T23:38:25.686Z,16.15
2023-04-29T23:41:10.684Z,16.35
2023-04-29T23:44:01.030Z,11.32
2023-04-29T23:46:46.275Z,14.88
2023-04-29T23:49:31.775Z,14.98
2023-04-29T23:52:17.251Z,16.38
2023-04-29T23:55:03.607Z,15.35
2023-04-29T23:57:48.668Z,11.25
